Orlando, Florida
Traffic Map
Current Weather Conditions
Orlando, Florida
Scattered Clouds
Scattered Clouds
64°
Feels Like: 64°
Wind Chill: 64° Ceiling: Unl
Heat Index: 64° Visibility: 10mi
Dew Point: 58° Wind: 9mph
Humidity: 80% Direction: 300° (WNW)
Pressure: 30.03in Gusts: 0mph
Raw Report DataKORL 152234Z 30008KT 10SM FEW019 SCT024 18/14 A3003 RMK AO2 T01780144
Traffic Incident Summary
Active as of:
Severity:
Category:
InformationThere was an issue retrieving the traffic information for this location. Please try a different location or try again shortly.
Advertisements